Kansas City, KS (66101)

12:46 AM CDT on March 30, 2017 (GMT -0500)
Berkley Park | | Change Station

Elev 760 ft 39.12 °N, 94.57 °W | Updated 29 seconds ago

Overcast
Overcast
53.1 °F
Feels Like 53.1 °F
N
6.0
Wind Variable Wind from ENE

Today
High -- | Low -- °F
--% Chance of Precip.
Yesterday
High -- | Low -- °F
Precip. -- in
Pressure 29.63 in
Visibility 7.0 miles
Clouds Overcast 900 ft
Dew Point 50 °F
Humidity 91%
Rainfall 0.00 in
Snow Depth Not available.
7:05 AM 7:40 PM
Waxing Crescent, 6% visible
SPECI KMKC 300504Z 08006KT 7SM OVC009 13/12 A2963 RMK AO2 CIG 006V010 T01280117
Pressure 29.63 in
Visibility 7.0 miles
Clouds Overcast 900 ft
Dew Point 50 °F
Humidity 91%
Rainfall 0.00 in
Snow Depth Not available.
7:05 AM 7:40 PM
Waxing Crescent, 6% visible
SPECI KMKC 300504Z 08006KT 7SM OVC009 13/12 A2963 RMK AO2 CIG 006V010 T01280117

Get Severe Weather Alerts

Thanks for signing up!

Be on the lookout for a verification email in your inbox.

You'll start receiving the daily forecast at 8 AM.

×

10-Day Weather Forecast

Almanac

Astronomy

Mar. 30, 2017 Rise Set
Actual Time
Civil Twilight
Nautical Twilight
Astronomical Twilight
Moon
Length of Visible Light
Length of Day
Tomorrow will be .
, % of the Moon is Illuminated

Today's Extremes

State Highs State Lows

Community

WunderPhotos

Upload Photos

1,962,540 photos uploaded!

WunderBlog® & News

Nearby

Air Quality

  Air Quality AQ Index Pollutant
Not available.

Snow Depth

Station Depth Elevation

Earthquake Activity

City Distance Mag. Time & Date
Minimum magnitude displayed is 2.5.

Earthquake Activity

City Distance Mag. Time & Date
Minimum magnitude displayed is 2.5.

Coastal Water Temperatures

Place Temperature

Stations

Nearby Weather Stations

Station Location Temp. Windchill Dew Point Humidity Wind Precip. Elev Updated Type
                   

Watches & Warnings

There are currently no watches in effect.